sensor_id;sensor_type;location;lat;lon;timestamp;P1;durP1;ratioP1;P2;durP2;ratioP2
60372;SDS011;46216;52.220;5.134;2023-04-06T00:01:12;11.40;;;8.02;;
60372;SDS011;46216;52.220;5.134;2023-04-06T00:03:38;12.40;;;8.88;;
60372;SDS011;46216;52.220;5.134;2023-04-06T00:06:03;12.13;;;8.55;;
60372;SDS011;46216;52.220;5.134;2023-04-06T00:08:29;13.00;;;8.77;;
60372;SDS011;46216;52.220;5.134;2023-04-06T00:10:55;12.65;;;8.23;;
60372;SDS011;46216;52.220;5.134;2023-04-06T00:13:20;12.35;;;8.38;;
60372;SDS011;46216;52.220;5.134;2023-04-06T00:15:46;14.82;;;8.50;;
60372;SDS011;46216;52.220;5.134;2023-04-06T00:18:11;12.98;;;7.93;;
60372;SDS011;46216;52.220;5.134;2023-04-06T00:20:39;13.73;;;7.75;;
60372;SDS011;46216;52.220;5.134;2023-04-06T00:23:05;12.30;;;8.63;;
60372;SDS011;46216;52.220;5.134;2023-04-06T00:25:30;11.68;;;8.10;;
60372;SDS011;46216;52.220;5.134;2023-04-06T00:27:56;12.10;;;8.57;;
60372;SDS011;46216;52.220;5.134;2023-04-06T00:30:21;12.95;;;7.40;;
60372;SDS011;46216;52.220;5.134;2023-04-06T00:32:47;11.25;;;7.90;;
60372;SDS011;46216;52.220;5.134;2023-04-06T00:35:12;10.88;;;7.43;;
60372;SDS011;46216;52.220;5.134;2023-04-06T00:37:37;10.63;;;7.47;;
60372;SDS011;46216;52.220;5.134;2023-04-06T00:40:03;11.00;;;7.30;;
60372;SDS011;46216;52.220;5.134;2023-04-06T00:42:29;11.88;;;7.40;;
60372;SDS011;46216;52.220;5.134;2023-04-06T00:44:55;11.63;;;7.13;;
60372;SDS011;46216;52.220;5.134;2023-04-06T00:47:22;11.00;;;7.30;;
60372;SDS011;46216;52.220;5.134;2023-04-06T00:49:49;11.80;;;7.93;;
60372;SDS011;46216;52.220;5.134;2023-04-06T00:52:15;12.02;;;7.60;;
60372;SDS011;46216;52.220;5.134;2023-04-06T00:54:40;11.60;;;7.22;;
60372;SDS011;46216;52.220;5.134;2023-04-06T00:57:06;11.88;;;7.80;;
60372;SDS011;46216;52.220;5.134;2023-04-06T00:59:31;11.02;;;7.63;;
60372;SDS011;46216;52.220;5.134;2023-04-06T01:01:57;10.43;;;7.20;;
60372;SDS011;46216;52.220;5.134;2023-04-06T01:04:22;11.18;;;7.90;;
60372;SDS011;46216;52.220;5.134;2023-04-06T01:06:48;12.40;;;7.22;;
60372;SDS011;46216;52.220;5.134;2023-04-06T01:09:15;11.40;;;6.95;;
60372;SDS011;46216;52.220;5.134;2023-04-06T01:11:41;10.90;;;7.68;;
60372;SDS011;46216;52.220;5.134;2023-04-06T01:14:06;12.70;;;7.65;;
60372;SDS011;46216;52.220;5.134;2023-04-06T01:16:32;9.23;;;6.82;;
60372;SDS011;46216;52.220;5.134;2023-04-06T01:18:58;9.00;;;6.88;;
60372;SDS011;46216;52.220;5.134;2023-04-06T01:21:24;13.23;;;7.32;;
60372;SDS011;46216;52.220;5.134;2023-04-06T01:23:50;10.27;;;7.25;;
60372;SDS011;46216;52.220;5.134;2023-04-06T01:26:15;10.27;;;7.07;;
60372;SDS011;46216;52.220;5.134;2023-04-06T01:28:41;11.13;;;7.38;;
60372;SDS011;46216;52.220;5.134;2023-04-06T01:31:07;10.65;;;7.15;;
60372;SDS011;46216;52.220;5.134;2023-04-06T01:33:33;11.82;;;7.78;;
60372;SDS011;46216;52.220;5.134;2023-04-06T01:35:59;10.95;;;7.07;;
60372;SDS011;46216;52.220;5.134;2023-04-06T01:38:25;12.82;;;7.30;;
60372;SDS011;46216;52.220;5.134;2023-04-06T01:40:51;10.30;;;6.93;;
60372;SDS011;46216;52.220;5.134;2023-04-06T01:43:17;11.48;;;7.70;;
60372;SDS011;46216;52.220;5.134;2023-04-06T01:45:42;10.50;;;7.25;;
60372;SDS011;46216;52.220;5.134;2023-04-06T01:48:07;11.35;;;7.10;;
60372;SDS011;46216;52.220;5.134;2023-04-06T01:50:33;12.13;;;7.22;;
60372;SDS011;46216;52.220;5.134;2023-04-06T01:52:58;10.25;;;7.07;;
60372;SDS011;46216;52.220;5.134;2023-04-06T01:55:23;12.50;;;7.43;;
60372;SDS011;46216;52.220;5.134;2023-04-06T01:57:49;12.20;;;7.35;;
60372;SDS011;46216;52.220;5.134;2023-04-06T02:00:15;11.13;;;7.13;;
60372;SDS011;46216;52.220;5.134;2023-04-06T02:02:41;11.63;;;7.82;;
60372;SDS011;46216;52.220;5.134;2023-04-06T02:05:07;10.90;;;7.43;;
60372;SDS011;46216;52.220;5.134;2023-04-06T02:07:33;8.95;;;6.65;;
60372;SDS011;46216;52.220;5.134;2023-04-06T02:09:58;10.45;;;7.28;;
60372;SDS011;46216;52.220;5.134;2023-04-06T02:12:23;11.80;;;7.28;;
60372;SDS011;46216;52.220;5.134;2023-04-06T02:14:49;11.93;;;6.72;;
60372;SDS011;46216;52.220;5.134;2023-04-06T02:17:15;11.60;;;7.70;;
60372;SDS011;46216;52.220;5.134;2023-04-06T02:19:40;11.07;;;6.95;;
60372;SDS011;46216;52.220;5.134;2023-04-06T02:22:05;10.10;;;7.40;;
60372;SDS011;46216;52.220;5.134;2023-04-06T02:24:31;12.55;;;7.45;;
60372;SDS011;46216;52.220;5.134;2023-04-06T02:26:57;10.43;;;7.60;;
60372;SDS011;46216;52.220;5.134;2023-04-06T02:29:22;10.32;;;7.45;;
60372;SDS011;46216;52.220;5.134;2023-04-06T02:31:47;9.30;;;6.93;;
60372;SDS011;46216;52.220;5.134;2023-04-06T02:34:13;11.73;;;7.65;;
60372;SDS011;46216;52.220;5.134;2023-04-06T02:36:43;9.95;;;6.85;;
60372;SDS011;46216;52.220;5.134;2023-04-06T02:39:09;9.30;;;6.95;;
60372;SDS011;46216;52.220;5.134;2023-04-06T02:41:35;10.32;;;7.28;;
60372;SDS011;46216;52.220;5.134;2023-04-06T02:44:00;11.77;;;7.72;;
60372;SDS011;46216;52.220;5.134;2023-04-06T02:46:26;11.13;;;7.18;;
60372;SDS011;46216;52.220;5.134;2023-04-06T02:48:51;10.25;;;7.20;;
60372;SDS011;46216;52.220;5.134;2023-04-06T02:51:16;10.10;;;7.30;;
60372;SDS011;46216;52.220;5.134;2023-04-06T02:53:41;12.00;;;6.93;;
60372;SDS011;46216;52.220;5.134;2023-04-06T02:56:07;9.15;;;7.18;;
60372;SDS011;46216;52.220;5.134;2023-04-06T02:58:32;10.90;;;6.68;;
60372;SDS011;46216;52.220;5.134;2023-04-06T03:00:57;10.38;;;6.95;;
60372;SDS011;46216;52.220;5.134;2023-04-06T03:03:23;11.57;;;7.40;;
60372;SDS011;46216;52.220;5.134;2023-04-06T03:05:48;10.93;;;7.43;;
60372;SDS011;46216;52.220;5.134;2023-04-06T03:08:14;13.05;;;7.57;;
60372;SDS011;46216;52.220;5.134;2023-04-06T03:10:39;10.38;;;7.57;;
60372;SDS011;46216;52.220;5.134;2023-04-06T03:13:04;12.15;;;7.47;;
60372;SDS011;46216;52.220;5.134;2023-04-06T03:15:30;10.77;;;7.78;;
60372;SDS011;46216;52.220;5.134;2023-04-06T03:17:55;11.70;;;8.35;;
60372;SDS011;46216;52.220;5.134;2023-04-06T03:20:22;11.13;;;7.72;;
60372;SDS011;46216;52.220;5.134;2023-04-06T03:22:47;14.32;;;8.25;;
60372;SDS011;46216;52.220;5.134;2023-04-06T03:25:12;14.30;;;7.95;;
60372;SDS011;46216;52.220;5.134;2023-04-06T03:27:38;11.40;;;7.65;;
60372;SDS011;46216;52.220;5.134;2023-04-06T03:30:03;11.70;;;7.95;;
60372;SDS011;46216;52.220;5.134;2023-04-06T03:32:29;11.98;;;7.85;;
60372;SDS011;46216;52.220;5.134;2023-04-06T03:34:54;12.15;;;7.53;;
60372;SDS011;46216;52.220;5.134;2023-04-06T03:37:20;12.43;;;8.32;;
60372;SDS011;46216;52.220;5.134;2023-04-06T03:39:48;12.43;;;8.32;;
60372;SDS011;46216;52.220;5.134;2023-04-06T03:42:13;12.82;;;8.38;;
60372;SDS011;46216;52.220;5.134;2023-04-06T03:44:39;13.30;;;8.75;;
60372;SDS011;46216;52.220;5.134;2023-04-06T03:47:04;13.45;;;8.55;;
60372;SDS011;46216;52.220;5.134;2023-04-06T03:49:29;14.85;;;8.98;;
60372;SDS011;46216;52.220;5.134;2023-04-06T03:51:55;12.70;;;8.85;;
60372;SDS011;46216;52.220;5.134;2023-04-06T03:54:21;12.93;;;8.52;;
60372;SDS011;46216;52.220;5.134;2023-04-06T03:56:46;13.55;;;9.60;;
60372;SDS011;46216;52.220;5.134;2023-04-06T03:59:12;12.35;;;8.68;;
60372;SDS011;46216;52.220;5.134;2023-04-06T04:01:40;12.43;;;9.20;;
60372;SDS011;46216;52.220;5.134;2023-04-06T04:04:05;13.68;;;9.32;;
60372;SDS011;46216;52.220;5.134;2023-04-06T04:06:30;14.80;;;9.38;;
60372;SDS011;46216;52.220;5.134;2023-04-06T04:08:56;12.35;;;8.75;;
60372;SDS011;46216;52.220;5.134;2023-04-06T04:11:21;13.15;;;9.60;;
60372;SDS011;46216;52.220;5.134;2023-04-06T04:13:47;13.43;;;9.57;;
60372;SDS011;46216;52.220;5.134;2023-04-06T04:16:12;15.07;;;9.85;;
60372;SDS011;46216;52.220;5.134;2023-04-06T04:18:37;15.82;;;10.02;;
60372;SDS011;46216;52.220;5.134;2023-04-06T04:21:03;13.75;;;9.63;;
60372;SDS011;46216;52.220;5.134;2023-04-06T04:23:28;14.20;;;9.73;;
60372;SDS011;46216;52.220;5.134;2023-04-06T04:25:53;15.13;;;10.35;;
60372;SDS011;46216;52.220;5.134;2023-04-06T04:28:19;13.98;;;10.00;;
60372;SDS011;46216;52.220;5.134;2023-04-06T04:30:44;13.55;;;10.43;;
60372;SDS011;46216;52.220;5.134;2023-04-06T04:33:10;15.60;;;10.23;;
60372;SDS011;46216;52.220;5.134;2023-04-06T04:35:35;16.77;;;10.55;;
60372;SDS011;46216;52.220;5.134;2023-04-06T04:38:01;16.63;;;10.13;;
60372;SDS011;46216;52.220;5.134;2023-04-06T04:40:26;16.58;;;10.82;;
60372;SDS011;46216;52.220;5.134;2023-04-06T04:42:51;14.82;;;10.38;;
60372;SDS011;46216;52.220;5.134;2023-04-06T04:45:17;17.58;;;10.30;;
60372;SDS011;46216;52.220;5.134;2023-04-06T04:47:42;17.92;;;10.38;;
60372;SDS011;46216;52.220;5.134;2023-04-06T04:50:07;16.40;;;10.38;;
60372;SDS011;46216;52.220;5.134;2023-04-06T04:52:33;14.85;;;10.38;;
60372;SDS011;46216;52.220;5.134;2023-04-06T04:54:58;16.52;;;11.00;;
60372;SDS011;46216;52.220;5.134;2023-04-06T04:57:23;15.70;;;10.52;;
60372;SDS011;46216;52.220;5.134;2023-04-06T04:59:49;18.33;;;11.90;;
60372;SDS011;46216;52.220;5.134;2023-04-06T05:02:15;15.32;;;10.65;;
60372;SDS011;46216;52.220;5.134;2023-04-06T05:04:41;16.35;;;10.65;;
60372;SDS011;46216;52.220;5.134;2023-04-06T05:07:07;16.25;;;11.25;;
60372;SDS011;46216;52.220;5.134;2023-04-06T05:09:33;15.68;;;10.52;;
60372;SDS011;46216;52.220;5.134;2023-04-06T05:11:59;16.60;;;11.40;;
60372;SDS011;46216;52.220;5.134;2023-04-06T05:14:25;18.08;;;11.75;;
60372;SDS011;46216;52.220;5.134;2023-04-06T05:16:51;19.05;;;10.93;;
60372;SDS011;46216;52.220;5.134;2023-04-06T05:19:16;17.35;;;11.43;;
60372;SDS011;46216;52.220;5.134;2023-04-06T05:21:42;16.33;;;11.13;;
60372;SDS011;46216;52.220;5.134;2023-04-06T05:24:07;16.38;;;11.02;;
60372;SDS011;46216;52.220;5.134;2023-04-06T05:26:33;16.85;;;11.23;;
60372;SDS011;46216;52.220;5.134;2023-04-06T05:28:59;17.80;;;11.50;;
60372;SDS011;46216;52.220;5.134;2023-04-06T05:31:24;17.65;;;10.80;;
60372;SDS011;46216;52.220;5.134;2023-04-06T05:33:50;16.25;;;11.38;;
60372;SDS011;46216;52.220;5.134;2023-04-06T05:36:15;16.42;;;10.68;;
60372;SDS011;46216;52.220;5.134;2023-04-06T05:38:41;16.13;;;11.48;;
60372;SDS011;46216;52.220;5.134;2023-04-06T05:41:06;17.45;;;10.90;;
60372;SDS011;46216;52.220;5.134;2023-04-06T05:43:31;15.23;;;11.60;;
60372;SDS011;46216;52.220;5.134;2023-04-06T05:45:56;16.50;;;11.07;;
60372;SDS011;46216;52.220;5.134;2023-04-06T05:48:22;17.25;;;11.98;;
60372;SDS011;46216;52.220;5.134;2023-04-06T05:50:48;17.02;;;12.13;;
60372;SDS011;46216;52.220;5.134;2023-04-06T05:53:16;16.58;;;11.98;;
60372;SDS011;46216;52.220;5.134;2023-04-06T05:55:41;15.65;;;11.55;;
60372;SDS011;46216;52.220;5.134;2023-04-06T05:58:07;18.13;;;11.80;;
60372;SDS011;46216;52.220;5.134;2023-04-06T06:00:32;18.80;;;11.90;;
60372;SDS011;46216;52.220;5.134;2023-04-06T06:02:58;16.00;;;11.93;;
60372;SDS011;46216;52.220;5.134;2023-04-06T06:05:23;17.50;;;12.27;;
60372;SDS011;46216;52.220;5.134;2023-04-06T06:07:48;18.77;;;11.43;;
60372;SDS011;46216;52.220;5.134;2023-04-06T06:10:14;16.88;;;11.82;;
60372;SDS011;46216;52.220;5.134;2023-04-06T06:12:39;17.20;;;12.23;;
60372;SDS011;46216;52.220;5.134;2023-04-06T06:15:04;19.23;;;12.05;;
60372;SDS011;46216;52.220;5.134;2023-04-06T06:17:30;18.33;;;11.98;;
60372;SDS011;46216;52.220;5.134;2023-04-06T06:19:56;18.52;;;13.05;;
60372;SDS011;46216;52.220;5.134;2023-04-06T06:22:21;18.52;;;11.95;;
60372;SDS011;46216;52.220;5.134;2023-04-06T06:24:46;19.95;;;12.63;;
60372;SDS011;46216;52.220;5.134;2023-04-06T06:27:12;18.40;;;12.80;;
60372;SDS011;46216;52.220;5.134;2023-04-06T06:29:37;19.17;;;13.27;;
60372;SDS011;46216;52.220;5.134;2023-04-06T06:32:02;24.20;;;13.57;;
60372;SDS011;46216;52.220;5.134;2023-04-06T06:34:28;22.08;;;13.57;;
60372;SDS011;46216;52.220;5.134;2023-04-06T06:36:53;21.08;;;13.88;;
60372;SDS011;46216;52.220;5.134;2023-04-06T06:39:20;21.23;;;13.73;;
60372;SDS011;46216;52.220;5.134;2023-04-06T06:41:47;21.13;;;13.93;;
60372;SDS011;46216;52.220;5.134;2023-04-06T06:44:12;18.67;;;13.38;;
60372;SDS011;46216;52.220;5.134;2023-04-06T06:46:37;19.30;;;13.43;;
60372;SDS011;46216;52.220;5.134;2023-04-06T06:49:03;18.73;;;13.55;;
60372;SDS011;46216;52.220;5.134;2023-04-06T06:51:28;21.92;;;14.18;;
60372;SDS011;46216;52.220;5.134;2023-04-06T06:53:53;17.98;;;13.48;;
60372;SDS011;46216;52.220;5.134;2023-04-06T06:56:18;19.75;;;13.93;;
60372;SDS011;46216;52.220;5.134;2023-04-06T06:58:44;19.02;;;13.60;;
60372;SDS011;46216;52.220;5.134;2023-04-06T07:01:09;20.00;;;14.30;;
60372;SDS011;46216;52.220;5.134;2023-04-06T07:03:35;19.65;;;14.25;;
60372;SDS011;46216;52.220;5.134;2023-04-06T07:06:00;19.27;;;14.00;;
60372;SDS011;46216;52.220;5.134;2023-04-06T07:08:27;21.67;;;15.23;;
60372;SDS011;46216;52.220;5.134;2023-04-06T07:10:52;24.40;;;14.25;;
60372;SDS011;46216;52.220;5.134;2023-04-06T07:13:20;20.33;;;14.13;;
60372;SDS011;46216;52.220;5.134;2023-04-06T07:15:47;21.73;;;14.88;;
60372;SDS011;46216;52.220;5.134;2023-04-06T07:18:12;23.02;;;14.98;;
60372;SDS011;46216;52.220;5.134;2023-04-06T07:20:37;21.20;;;14.00;;
60372;SDS011;46216;52.220;5.134;2023-04-06T07:23:03;22.63;;;14.68;;
60372;SDS011;46216;52.220;5.134;2023-04-06T07:25:28;17.67;;;13.65;;
60372;SDS011;46216;52.220;5.134;2023-04-06T07:27:54;20.95;;;14.77;;
60372;SDS011;46216;52.220;5.134;2023-04-06T07:30:20;20.23;;;14.55;;
60372;SDS011;46216;52.220;5.134;2023-04-06T07:32:46;21.77;;;14.52;;
60372;SDS011;46216;52.220;5.134;2023-04-06T07:35:12;21.73;;;14.57;;
60372;SDS011;46216;52.220;5.134;2023-04-06T07:37:37;19.75;;;14.80;;
60372;SDS011;46216;52.220;5.134;2023-04-06T07:40:03;24.55;;;15.80;;
60372;SDS011;46216;52.220;5.134;2023-04-06T07:42:28;25.30;;;15.65;;
60372;SDS011;46216;52.220;5.134;2023-04-06T07:44:54;20.50;;;14.63;;
60372;SDS011;46216;52.220;5.134;2023-04-06T07:47:19;20.52;;;15.45;;
60372;SDS011;46216;52.220;5.134;2023-04-06T07:49:45;20.42;;;15.15;;
60372;SDS011;46216;52.220;5.134;2023-04-06T07:52:11;24.20;;;15.13;;
60372;SDS011;46216;52.220;5.134;2023-04-06T07:54:36;30.73;;;16.63;;
60372;SDS011;46216;52.220;5.134;2023-04-06T07:57:01;25.42;;;16.27;;
60372;SDS011;46216;52.220;5.134;2023-04-06T07:59:26;22.67;;;15.68;;
60372;SDS011;46216;52.220;5.134;2023-04-06T08:01:52;21.30;;;15.63;;
60372;SDS011;46216;52.220;5.134;2023-04-06T08:04:17;20.65;;;15.63;;
60372;SDS011;46216;52.220;5.134;2023-04-06T08:06:42;21.42;;;15.60;;
60372;SDS011;46216;52.220;5.134;2023-04-06T08:09:08;28.52;;;16.17;;
60372;SDS011;46216;52.220;5.134;2023-04-06T08:11:33;24.15;;;16.33;;
60372;SDS011;46216;52.220;5.134;2023-04-06T08:13:58;21.92;;;15.98;;
60372;SDS011;46216;52.220;5.134;2023-04-06T08:16:24;23.38;;;16.50;;
60372;SDS011;46216;52.220;5.134;2023-04-06T08:18:49;23.38;;;16.40;;
60372;SDS011;46216;52.220;5.134;2023-04-06T08:21:14;25.45;;;17.13;;
60372;SDS011;46216;52.220;5.134;2023-04-06T08:23:40;24.75;;;17.42;;
60372;SDS011;46216;52.220;5.134;2023-04-06T08:26:05;25.08;;;16.88;;
60372;SDS011;46216;52.220;5.134;2023-04-06T08:28:31;23.70;;;17.02;;
60372;SDS011;46216;52.220;5.134;2023-04-06T08:30:57;23.40;;;17.83;;
60372;SDS011;46216;52.220;5.134;2023-04-06T08:33:22;24.27;;;17.85;;
60372;SDS011;46216;52.220;5.134;2023-04-06T08:35:47;28.73;;;17.83;;
60372;SDS011;46216;52.220;5.134;2023-04-06T08:38:13;22.35;;;16.42;;
60372;SDS011;46216;52.220;5.134;2023-04-06T08:40:38;25.45;;;17.05;;
60372;SDS011;46216;52.220;5.134;2023-04-06T08:43:06;23.58;;;17.17;;
60372;SDS011;46216;52.220;5.134;2023-04-06T08:45:35;22.92;;;16.95;;
60372;SDS011;46216;52.220;5.134;2023-04-06T08:48:00;23.48;;;17.17;;
60372;SDS011;46216;52.220;5.134;2023-04-06T08:50:27;22.20;;;15.93;;
60372;SDS011;46216;52.220;5.134;2023-04-06T08:52:55;26.20;;;17.33;;
60372;SDS011;46216;52.220;5.134;2023-04-06T08:55:22;26.15;;;16.35;;
60372;SDS011;46216;52.220;5.134;2023-04-06T08:57:49;23.88;;;17.05;;
60372;SDS011;46216;52.220;5.134;2023-04-06T09:00:18;23.40;;;17.42;;
60372;SDS011;46216;52.220;5.134;2023-04-06T09:02:45;26.17;;;18.38;;
60372;SDS011;46216;52.220;5.134;2023-04-06T09:05:11;25.90;;;17.73;;
60372;SDS011;46216;52.220;5.134;2023-04-06T09:07:37;23.05;;;17.80;;
60372;SDS011;46216;52.220;5.134;2023-04-06T09:10:03;23.63;;;17.13;;
60372;SDS011;46216;52.220;5.134;2023-04-06T09:12:30;25.25;;;18.02;;
60372;SDS011;46216;52.220;5.134;2023-04-06T09:14:57;25.30;;;17.58;;
60372;SDS011;46216;52.220;5.134;2023-04-06T09:17:27;23.33;;;18.15;;
60372;SDS011;46216;52.220;5.134;2023-04-06T09:19:53;27.13;;;18.48;;
60372;SDS011;46216;52.220;5.134;2023-04-06T09:22:19;25.25;;;17.83;;
60372;SDS011;46216;52.220;5.134;2023-04-06T09:24:47;26.15;;;17.67;;
60372;SDS011;46216;52.220;5.134;2023-04-06T09:27:17;24.42;;;17.83;;
60372;SDS011;46216;52.220;5.134;2023-04-06T09:30:02;27.55;;;17.33;;
60372;SDS011;46216;52.220;5.134;2023-04-06T09:32:32;28.27;;;19.08;;
60372;SDS011;46216;52.220;5.134;2023-04-06T09:35:07;29.77;;;17.92;;
60372;SDS011;46216;52.220;5.134;2023-04-06T09:37:33;24.83;;;17.73;;
60372;SDS011;46216;52.220;5.134;2023-04-06T09:40:06;26.38;;;19.13;;
60372;SDS011;46216;52.220;5.134;2023-04-06T09:42:32;26.25;;;19.27;;
60372;SDS011;46216;52.220;5.134;2023-04-06T09:44:59;28.35;;;19.30;;
60372;SDS011;46216;52.220;5.134;2023-04-06T09:47:25;27.38;;;19.85;;
60372;SDS011;46216;52.220;5.134;2023-04-06T09:49:53;27.48;;;19.45;;
60372;SDS011;46216;52.220;5.134;2023-04-06T09:52:26;28.48;;;20.15;;
60372;SDS011;46216;52.220;5.134;2023-04-06T09:54:59;29.85;;;21.00;;
60372;SDS011;46216;52.220;5.134;2023-04-06T09:57:37;28.50;;;20.42;;
60372;SDS011;46216;52.220;5.134;2023-04-06T10:00:17;32.03;;;21.10;;
60372;SDS011;46216;52.220;5.134;2023-04-06T10:05:52;26.92;;;20.23;;
60372;SDS011;46216;52.220;5.134;2023-04-06T10:08:23;27.33;;;19.42;;
60372;SDS011;46216;52.220;5.134;2023-04-06T10:10:52;28.20;;;19.05;;
60372;SDS011;46216;52.220;5.134;2023-04-06T10:13:18;28.10;;;18.65;;
60372;SDS011;46216;52.220;5.134;2023-04-06T10:15:44;26.90;;;17.67;;
60372;SDS011;46216;52.220;5.134;2023-04-06T10:18:10;28.00;;;18.45;;
60372;SDS011;46216;52.220;5.134;2023-04-06T10:23:13;29.33;;;19.25;;
60372;SDS011;46216;52.220;5.134;2023-04-06T10:28:25;26.92;;;18.30;;
60372;SDS011;46216;52.220;5.134;2023-04-06T10:30:57;22.95;;;16.27;;
60372;SDS011;46216;52.220;5.134;2023-04-06T10:33:24;21.17;;;16.05;;
60372;SDS011;46216;52.220;5.134;2023-04-06T10:35:49;21.02;;;15.07;;
60372;SDS011;46216;52.220;5.134;2023-04-06T10:38:15;19.25;;;14.00;;
60372;SDS011;46216;52.220;5.134;2023-04-06T10:40:44;17.55;;;12.27;;
60372;SDS011;46216;52.220;5.134;2023-04-06T10:43:13;16.70;;;12.18;;
60372;SDS011;46216;52.220;5.134;2023-04-06T10:45:40;17.08;;;11.50;;
60372;SDS011;46216;52.220;5.134;2023-04-06T10:48:18;14.02;;;10.18;;
60372;SDS011;46216;52.220;5.134;2023-04-06T10:50:44;14.20;;;10.18;;
60372;SDS011;46216;52.220;5.134;2023-04-06T10:53:11;13.73;;;9.77;;
60372;SDS011;46216;52.220;5.134;2023-04-06T10:55:45;12.30;;;8.77;;
60372;SDS011;46216;52.220;5.134;2023-04-06T10:58:11;10.77;;;8.68;;
60372;SDS011;46216;52.220;5.134;2023-04-06T11:00:43;11.60;;;8.32;;
60372;SDS011;46216;52.220;5.134;2023-04-06T11:03:09;10.77;;;8.80;;
60372;SDS011;46216;52.220;5.134;2023-04-06T11:05:35;10.18;;;8.10;;
60372;SDS011;46216;52.220;5.134;2023-04-06T11:08:00;11.10;;;8.27;;
60372;SDS011;46216;52.220;5.134;2023-04-06T11:10:25;11.38;;;8.68;;
60372;SDS011;46216;52.220;5.134;2023-04-06T11:12:54;10.27;;;8.00;;
60372;SDS011;46216;52.220;5.134;2023-04-06T11:15:19;11.77;;;8.70;;
60372;SDS011;46216;52.220;5.134;2023-04-06T11:17:45;12.10;;;8.50;;
60372;SDS011;46216;52.220;5.134;2023-04-06T11:20:10;11.32;;;8.15;;
60372;SDS011;46216;52.220;5.134;2023-04-06T11:22:36;10.73;;;8.70;;
60372;SDS011;46216;52.220;5.134;2023-04-06T11:25:13;9.73;;;8.35;;
60372;SDS011;46216;52.220;5.134;2023-04-06T11:27:39;9.70;;;8.00;;
60372;SDS011;46216;52.220;5.134;2023-04-06T11:30:05;10.32;;;7.80;;
60372;SDS011;46216;52.220;5.134;2023-04-06T11:32:38;11.13;;;7.95;;
60372;SDS011;46216;52.220;5.134;2023-04-06T11:35:05;9.98;;;7.95;;
60372;SDS011;46216;52.220;5.134;2023-04-06T11:37:31;8.85;;;7.22;;
60372;SDS011;46216;52.220;5.134;2023-04-06T11:39:57;11.68;;;7.93;;
60372;SDS011;46216;52.220;5.134;2023-04-06T11:42:24;8.63;;;7.20;;
60372;SDS011;46216;52.220;5.134;2023-04-06T11:44:51;8.38;;;7.28;;
60372;SDS011;46216;52.220;5.134;2023-04-06T11:47:18;9.73;;;7.43;;
60372;SDS011;46216;52.220;5.134;2023-04-06T11:49:45;10.45;;;7.72;;
60372;SDS011;46216;52.220;5.134;2023-04-06T11:52:44;8.73;;;6.90;;
60372;SDS011;46216;52.220;5.134;2023-04-06T11:55:13;9.25;;;7.30;;
60372;SDS011;46216;52.220;5.134;2023-04-06T11:57:40;7.93;;;6.85;;
60372;SDS011;46216;52.220;5.134;2023-04-06T12:00:07;10.27;;;7.07;;
60372;SDS011;46216;52.220;5.134;2023-04-06T12:02:34;9.05;;;7.00;;
60372;SDS011;46216;52.220;5.134;2023-04-06T12:05:01;8.68;;;7.25;;
60372;SDS011;46216;52.220;5.134;2023-04-06T12:07:26;9.15;;;7.28;;
60372;SDS011;46216;52.220;5.134;2023-04-06T12:09:52;8.82;;;7.75;;
60372;SDS011;46216;52.220;5.134;2023-04-06T12:12:17;9.63;;;7.40;;
60372;SDS011;46216;52.220;5.134;2023-04-06T12:14:42;9.32;;;7.57;;
60372;SDS011;46216;52.220;5.134;2023-04-06T12:17:07;8.63;;;6.75;;
60372;SDS011;46216;52.220;5.134;2023-04-06T12:19:33;9.45;;;6.97;;
60372;SDS011;46216;52.220;5.134;2023-04-06T12:21:58;9.82;;;7.32;;
60372;SDS011;46216;52.220;5.134;2023-04-06T12:24:24;9.65;;;8.30;;
60372;SDS011;46216;52.220;5.134;2023-04-06T12:26:49;10.18;;;7.88;;
60372;SDS011;46216;52.220;5.134;2023-04-06T12:29:15;10.45;;;7.85;;
60372;SDS011;46216;52.220;5.134;2023-04-06T12:31:40;11.35;;;9.27;;
60372;SDS011;46216;52.220;5.134;2023-04-06T12:34:07;10.82;;;8.38;;
60372;SDS011;46216;52.220;5.134;2023-04-06T12:36:33;10.88;;;8.23;;
60372;SDS011;46216;52.220;5.134;2023-04-06T12:38:59;10.15;;;8.73;;
60372;SDS011;46216;52.220;5.134;2023-04-06T12:41:26;12.95;;;9.43;;
60372;SDS011;46216;52.220;5.134;2023-04-06T12:43:52;14.32;;;9.48;;
60372;SDS011;46216;52.220;5.134;2023-04-06T12:46:18;11.68;;;9.55;;
60372;SDS011;46216;52.220;5.134;2023-04-06T12:48:43;12.35;;;10.15;;
60372;SDS011;46216;52.220;5.134;2023-04-06T12:51:09;13.38;;;9.70;;
60372;SDS011;46216;52.220;5.134;2023-04-06T12:53:34;13.40;;;10.15;;
60372;SDS011;46216;52.220;5.134;2023-04-06T12:56:00;13.40;;;10.85;;
60372;SDS011;46216;52.220;5.134;2023-04-06T12:58:27;14.73;;;10.57;;
60372;SDS011;46216;52.220;5.134;2023-04-06T13:00:53;14.18;;;10.43;;
60372;SDS011;46216;52.220;5.134;2023-04-06T13:03:19;13.63;;;10.93;;
60372;SDS011;46216;52.220;5.134;2023-04-06T13:05:45;14.98;;;10.43;;
60372;SDS011;46216;52.220;5.134;2023-04-06T13:08:12;13.43;;;11.15;;
60372;SDS011;46216;52.220;5.134;2023-04-06T13:10:38;16.15;;;11.20;;
60372;SDS011;46216;52.220;5.134;2023-04-06T13:13:03;14.65;;;10.98;;
60372;SDS011;46216;52.220;5.134;2023-04-06T13:15:29;14.63;;;11.77;;
60372;SDS011;46216;52.220;5.134;2023-04-06T13:17:54;15.85;;;11.63;;
60372;SDS011;46216;52.220;5.134;2023-04-06T13:20:20;15.30;;;11.88;;
60372;SDS011;46216;52.220;5.134;2023-04-06T13:22:45;16.80;;;12.55;;
60372;SDS011;46216;52.220;5.134;2023-04-06T13:25:10;15.15;;;11.43;;
60372;SDS011;46216;52.220;5.134;2023-04-06T13:27:36;15.43;;;12.07;;
60372;SDS011;46216;52.220;5.134;2023-04-06T13:30:02;15.63;;;12.23;;
60372;SDS011;46216;52.220;5.134;2023-04-06T13:32:28;17.25;;;12.32;;
60372;SDS011;46216;52.220;5.134;2023-04-06T13:34:55;17.60;;;12.60;;
60372;SDS011;46216;52.220;5.134;2023-04-06T13:37:20;15.88;;;12.63;;
60372;SDS011;46216;52.220;5.134;2023-04-06T13:39:46;16.80;;;12.27;;
60372;SDS011;46216;52.220;5.134;2023-04-06T13:42:11;16.45;;;12.30;;
60372;SDS011;46216;52.220;5.134;2023-04-06T13:44:37;16.40;;;12.82;;
60372;SDS011;46216;52.220;5.134;2023-04-06T13:47:02;16.23;;;13.20;;
60372;SDS011;46216;52.220;5.134;2023-04-06T13:49:27;17.10;;;13.02;;
60372;SDS011;46216;52.220;5.134;2023-04-06T13:51:52;16.25;;;13.27;;
60372;SDS011;46216;52.220;5.134;2023-04-06T13:54:18;16.63;;;12.65;;
60372;SDS011;46216;52.220;5.134;2023-04-06T13:56:44;16.15;;;12.95;;
60372;SDS011;46216;52.220;5.134;2023-04-06T13:59:10;16.13;;;13.15;;
60372;SDS011;46216;52.220;5.134;2023-04-06T14:01:35;18.05;;;12.82;;
60372;SDS011;46216;52.220;5.134;2023-04-06T14:04:01;16.42;;;13.15;;
60372;SDS011;46216;52.220;5.134;2023-04-06T14:06:27;18.40;;;13.20;;
60372;SDS011;46216;52.220;5.134;2023-04-06T14:08:52;15.68;;;12.98;;
60372;SDS011;46216;52.220;5.134;2023-04-06T14:11:17;16.42;;;13.00;;
60372;SDS011;46216;52.220;5.134;2023-04-06T14:13:43;17.58;;;13.50;;
60372;SDS011;46216;52.220;5.134;2023-04-06T14:16:08;17.02;;;13.75;;
60372;SDS011;46216;52.220;5.134;2023-04-06T14:18:33;17.40;;;13.45;;
60372;SDS011;46216;52.220;5.134;2023-04-06T14:20:59;15.60;;;13.02;;
60372;SDS011;46216;52.220;5.134;2023-04-06T14:23:26;17.65;;;13.38;;
60372;SDS011;46216;52.220;5.134;2023-04-06T14:26:00;19.55;;;13.18;;
60372;SDS011;46216;52.220;5.134;2023-04-06T14:28:29;18.17;;;13.73;;
60372;SDS011;46216;52.220;5.134;2023-04-06T14:30:55;17.17;;;13.70;;